sensor_id;sensor_type;location;lat;lon;timestamp;temperature;humidity
18777;DHT22;9517;51.174;4.160;2023-12-20T00:01:12;6.20;99.90
18777;DHT22;9517;51.174;4.160;2023-12-20T00:03:40;6.30;99.90
18777;DHT22;9517;51.174;4.160;2023-12-20T00:06:07;6.20;99.90
18777;DHT22;9517;51.174;4.160;2023-12-20T00:08:35;6.10;99.90
18777;DHT22;9517;51.174;4.160;2023-12-20T00:11:02;6.10;99.90
18777;DHT22;9517;51.174;4.160;2023-12-20T00:13:31;6.10;99.90
18777;DHT22;9517;51.174;4.160;2023-12-20T00:15:58;6.20;99.90
18777;DHT22;9517;51.174;4.160;2023-12-20T00:18:26;6.20;99.90
18777;DHT22;9517;51.174;4.160;2023-12-20T00:20:53;6.20;99.90
18777;DHT22;9517;51.174;4.160;2023-12-20T00:23:21;6.20;99.90
18777;DHT22;9517;51.174;4.160;2023-12-20T00:25:56;6.20;99.90
18777;DHT22;9517;51.174;4.160;2023-12-20T00:28:24;6.20;99.90
18777;DHT22;9517;51.174;4.160;2023-12-20T00:30:52;6.20;99.90
18777;DHT22;9517;51.174;4.160;2023-12-20T00:33:20;6.20;99.90
18777;DHT22;9517;51.174;4.160;2023-12-20T00:35:47;6.20;99.90
18777;DHT22;9517;51.174;4.160;2023-12-20T00:38:14;6.20;99.90
18777;DHT22;9517;51.174;4.160;2023-12-20T00:40:41;6.20;99.90
18777;DHT22;9517;51.174;4.160;2023-12-20T00:43:09;6.20;99.90
18777;DHT22;9517;51.174;4.160;2023-12-20T00:45:39;6.10;99.90
18777;DHT22;9517;51.174;4.160;2023-12-20T00:48:10;6.20;99.90
18777;DHT22;9517;51.174;4.160;2023-12-20T00:50:38;6.20;99.90
18777;DHT22;9517;51.174;4.160;2023-12-20T00:53:07;6.20;99.90
18777;DHT22;9517;51.174;4.160;2023-12-20T00:55:34;6.20;99.90
18777;DHT22;9517;51.174;4.160;2023-12-20T00:58:01;6.20;99.90
18777;DHT22;9517;51.174;4.160;2023-12-20T01:00:29;6.20;99.90
18777;DHT22;9517;51.174;4.160;2023-12-20T01:02:56;6.20;99.90
18777;DHT22;9517;51.174;4.160;2023-12-20T01:05:25;6.10;99.90
18777;DHT22;9517;51.174;4.160;2023-12-20T01:07:52;6.10;99.90
18777;DHT22;9517;51.174;4.160;2023-12-20T01:10:19;6.20;99.90
18777;DHT22;9517;51.174;4.160;2023-12-20T01:12:48;6.20;99.90
18777;DHT22;9517;51.174;4.160;2023-12-20T01:15:17;6.20;99.90
18777;DHT22;9517;51.174;4.160;2023-12-20T01:17:47;6.10;99.90
18777;DHT22;9517;51.174;4.160;2023-12-20T01:20:15;6.20;99.90
18777;DHT22;9517;51.174;4.160;2023-12-20T01:22:46;6.10;99.90
18777;DHT22;9517;51.174;4.160;2023-12-20T01:25:14;6.10;99.90
18777;DHT22;9517;51.174;4.160;2023-12-20T01:27:41;6.10;99.90
18777;DHT22;9517;51.174;4.160;2023-12-20T01:30:11;6.10;99.90
18777;DHT22;9517;51.174;4.160;2023-12-20T01:32:39;6.20;99.90
18777;DHT22;9517;51.174;4.160;2023-12-20T01:35:06;6.20;99.90
18777;DHT22;9517;51.174;4.160;2023-12-20T01:37:34;6.30;99.90
18777;DHT22;9517;51.174;4.160;2023-12-20T01:40:03;6.40;99.90
18777;DHT22;9517;51.174;4.160;2023-12-20T01:42:34;6.30;99.90
18777;DHT22;9517;51.174;4.160;2023-12-20T01:45:01;6.30;99.90
18777;DHT22;9517;51.174;4.160;2023-12-20T01:47:28;6.30;99.90
18777;DHT22;9517;51.174;4.160;2023-12-20T01:49:56;6.20;99.90
18777;DHT22;9517;51.174;4.160;2023-12-20T01:52:24;6.20;99.90
18777;DHT22;9517;51.174;4.160;2023-12-20T01:54:53;6.20;99.90
18777;DHT22;9517;51.174;4.160;2023-12-20T01:57:28;6.20;99.90
18777;DHT22;9517;51.174;4.160;2023-12-20T01:59:56;6.30;99.90
18777;DHT22;9517;51.174;4.160;2023-12-20T02:02:26;6.40;99.90
18777;DHT22;9517;51.174;4.160;2023-12-20T02:04:54;6.50;99.90
18777;DHT22;9517;51.174;4.160;2023-12-20T02:07:22;6.60;99.90
18777;DHT22;9517;51.174;4.160;2023-12-20T02:09:50;6.60;99.90
18777;DHT22;9517;51.174;4.160;2023-12-20T02:12:18;6.60;99.90
18777;DHT22;9517;51.174;4.160;2023-12-20T02:14:47;6.60;99.90
18777;DHT22;9517;51.174;4.160;2023-12-20T02:17:15;6.60;99.90
18777;DHT22;9517;51.174;4.160;2023-12-20T02:19:43;6.60;99.90
18777;DHT22;9517;51.174;4.160;2023-12-20T02:22:13;6.60;99.90
18777;DHT22;9517;51.174;4.160;2023-12-20T02:24:41;6.60;99.90
18777;DHT22;9517;51.174;4.160;2023-12-20T02:27:08;6.70;99.90
18777;DHT22;9517;51.174;4.160;2023-12-20T02:29:39;6.60;99.90
18777;DHT22;9517;51.174;4.160;2023-12-20T02:32:06;6.70;99.90
18777;DHT22;9517;51.174;4.160;2023-12-20T02:34:33;6.60;99.90
18777;DHT22;9517;51.174;4.160;2023-12-20T02:37:03;6.60;99.90
18777;DHT22;9517;51.174;4.160;2023-12-20T02:39:32;6.60;99.90
18777;DHT22;9517;51.174;4.160;2023-12-20T02:42:00;6.70;99.90
18777;DHT22;9517;51.174;4.160;2023-12-20T02:44:27;6.60;99.90
18777;DHT22;9517;51.174;4.160;2023-12-20T02:46:56;6.70;99.90
18777;DHT22;9517;51.174;4.160;2023-12-20T02:49:24;6.70;99.90
18777;DHT22;9517;51.174;4.160;2023-12-20T02:51:53;6.60;99.90
18777;DHT22;9517;51.174;4.160;2023-12-20T02:54:20;6.60;99.90
18777;DHT22;9517;51.174;4.160;2023-12-20T02:56:50;6.60;99.90
18777;DHT22;9517;51.174;4.160;2023-12-20T02:59:17;6.50;99.90
18777;DHT22;9517;51.174;4.160;2023-12-20T03:01:46;6.60;99.90
18777;DHT22;9517;51.174;4.160;2023-12-20T03:04:17;6.50;99.90
18777;DHT22;9517;51.174;4.160;2023-12-20T03:06:45;6.50;99.90
18777;DHT22;9517;51.174;4.160;2023-12-20T03:09:15;6.60;99.90
18777;DHT22;9517;51.174;4.160;2023-12-20T03:11:42;6.60;99.90
18777;DHT22;9517;51.174;4.160;2023-12-20T03:14:11;6.50;99.90
18777;DHT22;9517;51.174;4.160;2023-12-20T03:16:38;6.40;99.90
18777;DHT22;9517;51.174;4.160;2023-12-20T03:19:06;6.30;99.90
18777;DHT22;9517;51.174;4.160;2023-12-20T03:21:33;6.30;99.90
18777;DHT22;9517;51.174;4.160;2023-12-20T03:24:04;6.20;99.90
18777;DHT22;9517;51.174;4.160;2023-12-20T03:26:31;6.30;99.90
18777;DHT22;9517;51.174;4.160;2023-12-20T03:29:00;6.30;99.90
18777;DHT22;9517;51.174;4.160;2023-12-20T03:31:29;6.40;99.90
18777;DHT22;9517;51.174;4.160;2023-12-20T03:33:56;6.40;99.90
18777;DHT22;9517;51.174;4.160;2023-12-20T03:36:23;6.40;99.90
18777;DHT22;9517;51.174;4.160;2023-12-20T03:38:50;6.50;99.90
18777;DHT22;9517;51.174;4.160;2023-12-20T03:41:18;6.40;99.90
18777;DHT22;9517;51.174;4.160;2023-12-20T03:43:53;6.40;99.90
18777;DHT22;9517;51.174;4.160;2023-12-20T03:46:24;6.40;99.90
18777;DHT22;9517;51.174;4.160;2023-12-20T03:48:53;6.30;99.90
18777;DHT22;9517;51.174;4.160;2023-12-20T03:51:19;6.30;99.90
18777;DHT22;9517;51.174;4.160;2023-12-20T03:53:46;6.40;99.90
18777;DHT22;9517;51.174;4.160;2023-12-20T03:56:14;6.30;99.90
18777;DHT22;9517;51.174;4.160;2023-12-20T03:58:42;6.30;99.90
18777;DHT22;9517;51.174;4.160;2023-12-20T04:01:11;6.30;99.90
18777;DHT22;9517;51.174;4.160;2023-12-20T04:03:39;6.30;99.90
18777;DHT22;9517;51.174;4.160;2023-12-20T04:06:07;6.40;99.90
18777;DHT22;9517;51.174;4.160;2023-12-20T04:08:35;6.40;99.90
18777;DHT22;9517;51.174;4.160;2023-12-20T04:11:03;6.50;99.90
18777;DHT22;9517;51.174;4.160;2023-12-20T04:13:30;6.60;99.90
18777;DHT22;9517;51.174;4.160;2023-12-20T04:15:57;6.70;99.90
18777;DHT22;9517;51.174;4.160;2023-12-20T04:18:25;6.60;99.90
18777;DHT22;9517;51.174;4.160;2023-12-20T04:20:54;6.70;99.90
18777;DHT22;9517;51.174;4.160;2023-12-20T04:23:24;6.70;99.90
18777;DHT22;9517;51.174;4.160;2023-12-20T04:25:53;6.70;99.90
18777;DHT22;9517;51.174;4.160;2023-12-20T04:28:20;6.60;99.90
18777;DHT22;9517;51.174;4.160;2023-12-20T04:30:48;6.50;99.90
18777;DHT22;9517;51.174;4.160;2023-12-20T04:33:20;6.50;99.90
18777;DHT22;9517;51.174;4.160;2023-12-20T04:35:47;6.50;99.90
18777;DHT22;9517;51.174;4.160;2023-12-20T04:38:19;6.50;99.90
18777;DHT22;9517;51.174;4.160;2023-12-20T04:40:48;6.40;99.90
18777;DHT22;9517;51.174;4.160;2023-12-20T04:43:16;6.40;99.90
18777;DHT22;9517;51.174;4.160;2023-12-20T04:45:45;6.40;99.90
18777;DHT22;9517;51.174;4.160;2023-12-20T04:48:12;6.30;99.90
18777;DHT22;9517;51.174;4.160;2023-12-20T04:50:41;6.40;99.90
18777;DHT22;9517;51.174;4.160;2023-12-20T04:53:08;6.30;99.90
18777;DHT22;9517;51.174;4.160;2023-12-20T04:55:35;6.30;99.90
18777;DHT22;9517;51.174;4.160;2023-12-20T04:58:04;6.30;99.90
18777;DHT22;9517;51.174;4.160;2023-12-20T05:00:31;6.20;99.90
18777;DHT22;9517;51.174;4.160;2023-12-20T05:03:00;6.20;99.90
18777;DHT22;9517;51.174;4.160;2023-12-20T05:05:28;6.30;99.90
18777;DHT22;9517;51.174;4.160;2023-12-20T05:07:55;6.30;99.90
18777;DHT22;9517;51.174;4.160;2023-12-20T05:10:25;6.30;99.90
18777;DHT22;9517;51.174;4.160;2023-12-20T05:12:53;6.30;99.90
18777;DHT22;9517;51.174;4.160;2023-12-20T05:15:24;6.30;99.90
18777;DHT22;9517;51.174;4.160;2023-12-20T05:17:51;6.30;99.90
18777;DHT22;9517;51.174;4.160;2023-12-20T05:20:19;6.30;99.90
18777;DHT22;9517;51.174;4.160;2023-12-20T05:22:46;6.30;99.90
18777;DHT22;9517;51.174;4.160;2023-12-20T05:25:15;6.30;99.90
18777;DHT22;9517;51.174;4.160;2023-12-20T05:27:43;6.30;99.90
18777;DHT22;9517;51.174;4.160;2023-12-20T05:30:11;6.30;99.90
18777;DHT22;9517;51.174;4.160;2023-12-20T05:32:44;6.30;99.90
18777;DHT22;9517;51.174;4.160;2023-12-20T05:35:13;6.30;99.90
18777;DHT22;9517;51.174;4.160;2023-12-20T05:37:41;6.30;99.90
18777;DHT22;9517;51.174;4.160;2023-12-20T05:40:10;6.40;99.90
18777;DHT22;9517;51.174;4.160;2023-12-20T05:42:37;6.40;99.90
18777;DHT22;9517;51.174;4.160;2023-12-20T05:45:05;6.50;99.90
18777;DHT22;9517;51.174;4.160;2023-12-20T05:47:33;6.50;99.90
18777;DHT22;9517;51.174;4.160;2023-12-20T05:50:02;6.60;99.90
18777;DHT22;9517;51.174;4.160;2023-12-20T05:52:31;6.60;99.90
18777;DHT22;9517;51.174;4.160;2023-12-20T05:55:09;6.60;99.90
18777;DHT22;9517;51.174;4.160;2023-12-20T05:57:45;6.70;99.90
18777;DHT22;9517;51.174;4.160;2023-12-20T06:00:15;6.70;99.90
18777;DHT22;9517;51.174;4.160;2023-12-20T06:02:44;6.70;99.90
18777;DHT22;9517;51.174;4.160;2023-12-20T06:05:13;6.70;99.90
18777;DHT22;9517;51.174;4.160;2023-12-20T06:07:42;6.70;99.90
18777;DHT22;9517;51.174;4.160;2023-12-20T06:10:13;6.70;99.90
18777;DHT22;9517;51.174;4.160;2023-12-20T06:12:41;6.80;99.90
18777;DHT22;9517;51.174;4.160;2023-12-20T06:15:08;6.80;99.90
18777;DHT22;9517;51.174;4.160;2023-12-20T06:17:36;6.80;99.90
18777;DHT22;9517;51.174;4.160;2023-12-20T06:20:04;6.80;99.90
18777;DHT22;9517;51.174;4.160;2023-12-20T06:22:37;6.70;99.90
18777;DHT22;9517;51.174;4.160;2023-12-20T06:25:05;6.70;99.90
18777;DHT22;9517;51.174;4.160;2023-12-20T06:27:34;6.70;99.90
18777;DHT22;9517;51.174;4.160;2023-12-20T06:30:02;6.60;99.90
18777;DHT22;9517;51.174;4.160;2023-12-20T06:32:32;6.60;99.90
18777;DHT22;9517;51.174;4.160;2023-12-20T06:35:01;6.60;99.90
18777;DHT22;9517;51.174;4.160;2023-12-20T07:22:17;5.90;99.90
18777;DHT22;9517;51.174;4.160;2023-12-20T07:25:04;5.90;99.90
18777;DHT22;9517;51.174;4.160;2023-12-20T07:27:51;5.90;99.90
18777;DHT22;9517;51.174;4.160;2023-12-20T07:30:23;5.90;99.90
18777;DHT22;9517;51.174;4.160;2023-12-20T07:35:50;5.80;99.90
18777;DHT22;9517;51.174;4.160;2023-12-20T07:38:22;5.90;99.90
18777;DHT22;9517;51.174;4.160;2023-12-20T07:40:49;5.80;99.90
18777;DHT22;9517;51.174;4.160;2023-12-20T07:43:16;5.90;99.90
18777;DHT22;9517;51.174;4.160;2023-12-20T07:45:44;5.80;99.90
18777;DHT22;9517;51.174;4.160;2023-12-20T07:48:11;5.80;99.90
18777;DHT22;9517;51.174;4.160;2023-12-20T07:50:41;5.80;99.90
18777;DHT22;9517;51.174;4.160;2023-12-20T07:53:09;5.80;99.90
18777;DHT22;9517;51.174;4.160;2023-12-20T07:55:37;5.80;99.90
18777;DHT22;9517;51.174;4.160;2023-12-20T07:58:08;5.80;99.90
18777;DHT22;9517;51.174;4.160;2023-12-20T08:00:36;5.90;99.90
18777;DHT22;9517;51.174;4.160;2023-12-20T08:03:11;6.00;99.90
18777;DHT22;9517;51.174;4.160;2023-12-20T08:05:41;6.00;99.90
18777;DHT22;9517;51.174;4.160;2023-12-20T08:08:21;6.00;99.90
18777;DHT22;9517;51.174;4.160;2023-12-20T08:11:18;6.10;99.90
18777;DHT22;9517;51.174;4.160;2023-12-20T08:17:19;6.10;99.90
18777;DHT22;9517;51.174;4.160;2023-12-20T08:23:31;6.00;99.90
18777;DHT22;9517;51.174;4.160;2023-12-20T08:35:34;6.20;99.90
18777;DHT22;9517;51.174;4.160;2023-12-20T08:42:09;6.20;99.90
18777;DHT22;9517;51.174;4.160;2023-12-20T08:44:39;6.20;99.90
18777;DHT22;9517;51.174;4.160;2023-12-20T08:52:49;6.20;99.90
18777;DHT22;9517;51.174;4.160;2023-12-20T08:55:58;6.20;99.90
18777;DHT22;9517;51.174;4.160;2023-12-20T08:59:15;6.30;99.90
18777;DHT22;9517;51.174;4.160;2023-12-20T09:02:07;6.40;99.90
18777;DHT22;9517;51.174;4.160;2023-12-20T09:05:11;6.40;99.90
18777;DHT22;9517;51.174;4.160;2023-12-20T09:24:46;6.90;99.90
18777;DHT22;9517;51.174;4.160;2023-12-20T09:58:12;7.60;99.90
18777;DHT22;9517;51.174;4.160;2023-12-20T10:00:39;7.60;99.90
18777;DHT22;9517;51.174;4.160;2023-12-20T10:03:08;7.60;99.90
18777;DHT22;9517;51.174;4.160;2023-12-20T10:05:39;7.70;99.90
18777;DHT22;9517;51.174;4.160;2023-12-20T10:08:18;7.70;99.90
18777;DHT22;9517;51.174;4.160;2023-12-20T11:09:22;7.80;99.90
18777;DHT22;9517;51.174;4.160;2023-12-20T11:12:02;7.70;99.90
18777;DHT22;9517;51.174;4.160;2023-12-20T11:14:40;7.60;99.90
18777;DHT22;9517;51.174;4.160;2023-12-20T11:17:09;7.60;99.90
18777;DHT22;9517;51.174;4.160;2023-12-20T11:20:04;7.60;99.90
18777;DHT22;9517;51.174;4.160;2023-12-20T11:22:32;7.40;99.90
18777;DHT22;9517;51.174;4.160;2023-12-20T11:40:48;7.50;99.90
18777;DHT22;9517;51.174;4.160;2023-12-20T11:50:25;7.60;99.90
18777;DHT22;9517;51.174;4.160;2023-12-20T11:56:47;7.80;99.90
18777;DHT22;9517;51.174;4.160;2023-12-20T11:59:14;8.00;99.90
18777;DHT22;9517;51.174;4.160;2023-12-20T12:02:50;8.10;99.90
18777;DHT22;9517;51.174;4.160;2023-12-20T12:09:53;8.40;99.90
18777;DHT22;9517;51.174;4.160;2023-12-20T12:12:27;8.40;99.90
18777;DHT22;9517;51.174;4.160;2023-12-20T12:14:56;8.40;99.90
18777;DHT22;9517;51.174;4.160;2023-12-20T12:17:24;8.30;99.90
18777;DHT22;9517;51.174;4.160;2023-12-20T12:20:02;8.30;99.90
18777;DHT22;9517;51.174;4.160;2023-12-20T12:25:23;8.30;99.90
18777;DHT22;9517;51.174;4.160;2023-12-20T12:27:53;8.30;99.90
18777;DHT22;9517;51.174;4.160;2023-12-20T12:30:21;8.40;99.90
18777;DHT22;9517;51.174;4.160;2023-12-20T12:32:48;8.40;99.90
18777;DHT22;9517;51.174;4.160;2023-12-20T12:35:16;8.40;99.90
18777;DHT22;9517;51.174;4.160;2023-12-20T12:37:44;8.40;99.90
18777;DHT22;9517;51.174;4.160;2023-12-20T12:40:12;8.50;99.90
18777;DHT22;9517;51.174;4.160;2023-12-20T12:42:42;8.40;99.90
18777;DHT22;9517;51.174;4.160;2023-12-20T12:45:11;8.50;99.90
18777;DHT22;9517;51.174;4.160;2023-12-20T12:47:39;8.50;99.90
18777;DHT22;9517;51.174;4.160;2023-12-20T12:53:22;8.50;99.90
18777;DHT22;9517;51.174;4.160;2023-12-20T12:56:05;8.60;99.90
18777;DHT22;9517;51.174;4.160;2023-12-20T12:58:32;8.50;99.90
18777;DHT22;9517;51.174;4.160;2023-12-20T13:01:02;8.40;99.90
18777;DHT22;9517;51.174;4.160;2023-12-20T13:03:30;8.50;99.90
18777;DHT22;9517;51.174;4.160;2023-12-20T13:05:57;8.50;99.90
18777;DHT22;9517;51.174;4.160;2023-12-20T13:08:27;8.50;99.90
18777;DHT22;9517;51.174;4.160;2023-12-20T13:10:56;8.40;99.90
18777;DHT22;9517;51.174;4.160;2023-12-20T13:13:26;8.50;99.90
18777;DHT22;9517;51.174;4.160;2023-12-20T13:15:54;8.50;99.90
18777;DHT22;9517;51.174;4.160;2023-12-20T13:18:24;8.60;99.90
18777;DHT22;9517;51.174;4.160;2023-12-20T13:20:54;8.60;99.90
18777;DHT22;9517;51.174;4.160;2023-12-20T13:23:22;8.60;99.90
18777;DHT22;9517;51.174;4.160;2023-12-20T13:25:49;8.60;99.90
18777;DHT22;9517;51.174;4.160;2023-12-20T13:28:17;8.70;99.90
18777;DHT22;9517;51.174;4.160;2023-12-20T13:30:45;8.60;99.90
18777;DHT22;9517;51.174;4.160;2023-12-20T13:33:12;8.70;99.90
18777;DHT22;9517;51.174;4.160;2023-12-20T13:35:42;8.80;99.90
18777;DHT22;9517;51.174;4.160;2023-12-20T13:38:10;8.80;99.90
18777;DHT22;9517;51.174;4.160;2023-12-20T13:40:50;8.80;99.90
18777;DHT22;9517;51.174;4.160;2023-12-20T13:46:49;8.80;99.90
18777;DHT22;9517;51.174;4.160;2023-12-20T13:49:50;8.90;99.90
18777;DHT22;9517;51.174;4.160;2023-12-20T13:52:49;8.80;99.90
18777;DHT22;9517;51.174;4.160;2023-12-20T13:55:37;8.80;99.90
18777;DHT22;9517;51.174;4.160;2023-12-20T13:58:09;8.90;99.90
18777;DHT22;9517;51.174;4.160;2023-12-20T14:00:37;8.90;99.90
18777;DHT22;9517;51.174;4.160;2023-12-20T14:03:08;8.90;99.90
18777;DHT22;9517;51.174;4.160;2023-12-20T14:05:36;8.80;99.90
18777;DHT22;9517;51.174;4.160;2023-12-20T14:08:06;8.90;99.90
18777;DHT22;9517;51.174;4.160;2023-12-20T14:10:34;8.90;99.90
18777;DHT22;9517;51.174;4.160;2023-12-20T14:13:02;8.90;99.90
18777;DHT22;9517;51.174;4.160;2023-12-20T14:15:30;9.00;99.90
18777;DHT22;9517;51.174;4.160;2023-12-20T14:18:04;9.00;99.90
18777;DHT22;9517;51.174;4.160;2023-12-20T14:20:33;9.00;99.90
18777;DHT22;9517;51.174;4.160;2023-12-20T14:23:01;9.10;99.90
18777;DHT22;9517;51.174;4.160;2023-12-20T14:25:31;9.10;99.90
18777;DHT22;9517;51.174;4.160;2023-12-20T14:27:59;9.20;99.90
18777;DHT22;9517;51.174;4.160;2023-12-20T14:30:30;9.20;99.90
18777;DHT22;9517;51.174;4.160;2023-12-20T14:32:58;9.10;99.90
18777;DHT22;9517;51.174;4.160;2023-12-20T14:35:26;9.10;99.90
18777;DHT22;9517;51.174;4.160;2023-12-20T14:38:27;9.20;99.90
18777;DHT22;9517;51.174;4.160;2023-12-20T14:45:13;9.20;99.90
18777;DHT22;9517;51.174;4.160;2023-12-20T14:48:33;9.20;99.90
18777;DHT22;9517;51.174;4.160;2023-12-20T14:51:15;9.20;99.90
18777;DHT22;9517;51.174;4.160;2023-12-20T14:53:43;9.30;99.90
18777;DHT22;9517;51.174;4.160;2023-12-20T14:56:10;9.30;99.90
18777;DHT22;9517;51.174;4.160;2023-12-20T14:58:38;9.30;99.90
18777;DHT22;9517;51.174;4.160;2023-12-20T15:01:07;9.20;99.90
18777;DHT22;9517;51.174;4.160;2023-12-20T15:03:35;9.20;99.90
18777;DHT22;9517;51.174;4.160;2023-12-20T15:06:05;9.20;99.90
18777;DHT22;9517;51.174;4.160;2023-12-20T15:08:37;9.20;99.90
18777;DHT22;9517;51.174;4.160;2023-12-20T15:11:05;9.20;99.90
18777;DHT22;9517;51.174;4.160;2023-12-20T15:13:33;9.20;99.90
18777;DHT22;9517;51.174;4.160;2023-12-20T15:16:01;9.20;99.90
18777;DHT22;9517;51.174;4.160;2023-12-20T15:18:31;9.20;99.90
18777;DHT22;9517;51.174;4.160;2023-12-20T15:20:59;9.20;99.90
18777;DHT22;9517;51.174;4.160;2023-12-20T15:23:26;9.20;99.90
18777;DHT22;9517;51.174;4.160;2023-12-20T15:25:56;9.20;99.90
18777;DHT22;9517;51.174;4.160;2023-12-20T15:28:24;9.10;99.90
18777;DHT22;9517;51.174;4.160;2023-12-20T15:30:52;9.10;99.90
18777;DHT22;9517;51.174;4.160;2023-12-20T15:33:22;9.10;99.90
18777;DHT22;9517;51.174;4.160;2023-12-20T15:35:52;9.10;99.90
18777;DHT22;9517;51.174;4.160;2023-12-20T15:38:20;9.10;99.90
18777;DHT22;9517;51.174;4.160;2023-12-20T15:40:50;9.10;99.90
18777;DHT22;9517;51.174;4.160;2023-12-20T15:43:29;9.00;99.90
18777;DHT22;9517;51.174;4.160;2023-12-20T15:45:57;9.00;99.90
18777;DHT22;9517;51.174;4.160;2023-12-20T15:48:25;8.90;99.90
18777;DHT22;9517;51.174;4.160;2023-12-20T15:51:04;8.90;99.90
18777;DHT22;9517;51.174;4.160;2023-12-20T15:53:32;8.90;99.90
18777;DHT22;9517;51.174;4.160;2023-12-20T15:56:04;9.00;99.90
18777;DHT22;9517;51.174;4.160;2023-12-20T15:58:32;9.00;99.90
18777;DHT22;9517;51.174;4.160;2023-12-20T16:01:00;8.90;99.90
18777;DHT22;9517;51.174;4.160;2023-12-20T16:03:31;8.90;99.90
18777;DHT22;9517;51.174;4.160;2023-12-20T16:06:06;8.90;99.90
18777;DHT22;9517;51.174;4.160;2023-12-20T16:08:34;9.00;99.90
18777;DHT22;9517;51.174;4.160;2023-12-20T16:11:02;9.00;99.90
18777;DHT22;9517;51.174;4.160;2023-12-20T16:13:30;9.10;99.90
18777;DHT22;9517;51.174;4.160;2023-12-20T16:16:00;9.10;99.90
18777;DHT22;9517;51.174;4.160;2023-12-20T16:18:28;9.00;99.90
18777;DHT22;9517;51.174;4.160;2023-12-20T16:20:56;9.00;99.90
18777;DHT22;9517;51.174;4.160;2023-12-20T16:23:28;9.00;99.90
18777;DHT22;9517;51.174;4.160;2023-12-20T16:25:55;9.00;99.90
18777;DHT22;9517;51.174;4.160;2023-12-20T16:28:23;9.00;99.90
18777;DHT22;9517;51.174;4.160;2023-12-20T16:30:51;9.00;99.90
18777;DHT22;9517;51.174;4.160;2023-12-20T16:33:21;8.90;99.90
18777;DHT22;9517;51.174;4.160;2023-12-20T16:35:49;8.80;99.90
18777;DHT22;9517;51.174;4.160;2023-12-20T16:38:17;8.90;99.90
18777;DHT22;9517;51.174;4.160;2023-12-20T16:40:46;8.80;99.90
18777;DHT22;9517;51.174;4.160;2023-12-20T16:43:14;8.80;99.90
18777;DHT22;9517;51.174;4.160;2023-12-20T16:45:41;8.80;99.90
18777;DHT22;9517;51.174;4.160;2023-12-20T16:48:09;8.90;99.90
18777;DHT22;9517;51.174;4.160;2023-12-20T16:50:37;8.90;99.90
18777;DHT22;9517;51.174;4.160;2023-12-20T16:53:05;8.90;99.90
18777;DHT22;9517;51.174;4.160;2023-12-20T16:55:32;8.90;99.90
18777;DHT22;9517;51.174;4.160;2023-12-20T16:58:02;8.90;99.90
18777;DHT22;9517;51.174;4.160;2023-12-20T17:00:30;9.00;99.90
18777;DHT22;9517;51.174;4.160;2023-12-20T17:02:59;8.90;99.90
18777;DHT22;9517;51.174;4.160;2023-12-20T17:05:27;8.90;99.90
18777;DHT22;9517;51.174;4.160;2023-12-20T17:07:55;8.90;99.90
18777;DHT22;9517;51.174;4.160;2023-12-20T17:10:23;8.80;99.90
18777;DHT22;9517;51.174;4.160;2023-12-20T17:12:51;8.80;99.90
18777;DHT22;9517;51.174;4.160;2023-12-20T17:15:20;8.80;99.90
18777;DHT22;9517;51.174;4.160;2023-12-20T17:17:48;8.80;99.90
18777;DHT22;9517;51.174;4.160;2023-12-20T17:20:16;8.80;99.90
18777;DHT22;9517;51.174;4.160;2023-12-20T17:22:44;8.70;99.90
18777;DHT22;9517;51.174;4.160;2023-12-20T17:25:11;8.70;99.90
18777;DHT22;9517;51.174;4.160;2023-12-20T17:27:39;8.80;99.90
18777;DHT22;9517;51.174;4.160;2023-12-20T17:30:08;8.80;99.90
18777;DHT22;9517;51.174;4.160;2023-12-20T17:32:37;8.90;99.90
18777;DHT22;9517;51.174;4.160;2023-12-20T17:35:06;8.90;99.90
18777;DHT22;9517;51.174;4.160;2023-12-20T17:37:34;8.90;99.90
18777;DHT22;9517;51.174;4.160;2023-12-20T17:40:02;8.90;99.90
18777;DHT22;9517;51.174;4.160;2023-12-20T17:42:30;8.80;99.90
18777;DHT22;9517;51.174;4.160;2023-12-20T17:45:00;8.90;99.90
18777;DHT22;9517;51.174;4.160;2023-12-20T17:47:28;8.90;99.90
18777;DHT22;9517;51.174;4.160;2023-12-20T17:49:57;9.00;99.90
18777;DHT22;9517;51.174;4.160;2023-12-20T17:52:25;9.00;99.90
18777;DHT22;9517;51.174;4.160;2023-12-20T17:54:53;8.90;99.90
18777;DHT22;9517;51.174;4.160;2023-12-20T17:57:21;8.90;99.90
18777;DHT22;9517;51.174;4.160;2023-12-20T17:59:50;9.00;99.90
18777;DHT22;9517;51.174;4.160;2023-12-20T18:02:18;8.90;99.90
18777;DHT22;9517;51.174;4.160;2023-12-20T18:04:46;8.90;99.90
18777;DHT22;9517;51.174;4.160;2023-12-20T18:07:15;8.90;99.90
18777;DHT22;9517;51.174;4.160;2023-12-20T18:09:43;8.90;99.90
18777;DHT22;9517;51.174;4.160;2023-12-20T18:12:11;9.00;99.90
18777;DHT22;9517;51.174;4.160;2023-12-20T18:14:39;8.90;99.90
18777;DHT22;9517;51.174;4.160;2023-12-20T18:17:06;8.90;99.90
18777;DHT22;9517;51.174;4.160;2023-12-20T18:19:34;8.90;99.90
18777;DHT22;9517;51.174;4.160;2023-12-20T18:22:02;8.90;99.90
18777;DHT22;9517;51.174;4.160;2023-12-20T18:24:33;8.90;99.90
18777;DHT22;9517;51.174;4.160;2023-12-20T18:27:00;8.90;99.90
18777;DHT22;9517;51.174;4.160;2023-12-20T18:29:28;8.90;99.90
18777;DHT22;9517;51.174;4.160;2023-12-20T18:31:57;8.90;99.90
18777;DHT22;9517;51.174;4.160;2023-12-20T18:34:27;8.90;99.90
18777;DHT22;9517;51.174;4.160;2023-12-20T18:36:55;9.00;99.90
18777;DHT22;9517;51.174;4.160;2023-12-20T18:39:23;9.00;99.90
18777;DHT22;9517;51.174;4.160;2023-12-20T18:41:52;9.10;99.90
18777;DHT22;9517;51.174;4.160;2023-12-20T18:44:20;9.10;99.90
18777;DHT22;9517;51.174;4.160;2023-12-20T18:46:48;9.10;99.90
18777;DHT22;9517;51.174;4.160;2023-12-20T18:49:16;9.10;99.90
18777;DHT22;9517;51.174;4.160;2023-12-20T18:51:44;9.10;99.90
18777;DHT22;9517;51.174;4.160;2023-12-20T18:54:11;9.10;99.90
18777;DHT22;9517;51.174;4.160;2023-12-20T18:56:39;9.10;99.90
18777;DHT22;9517;51.174;4.160;2023-12-20T18:59:10;9.10;99.90
18777;DHT22;9517;51.174;4.160;2023-12-20T19:01:39;9.20;99.90
18777;DHT22;9517;51.174;4.160;2023-12-20T19:04:07;9.10;99.90
18777;DHT22;9517;51.174;4.160;2023-12-20T19:06:35;9.10;99.90
18777;DHT22;9517;51.174;4.160;2023-12-20T19:09:03;9.20;99.90
18777;DHT22;9517;51.174;4.160;2023-12-20T19:11:31;9.10;99.90
18777;DHT22;9517;51.174;4.160;2023-12-20T19:13:59;9.10;99.90
18777;DHT22;9517;51.174;4.160;2023-12-20T19:16:29;9.20;99.90
18777;DHT22;9517;51.174;4.160;2023-12-20T19:18:57;9.30;99.90
18777;DHT22;9517;51.174;4.160;2023-12-20T19:21:24;9.20;99.90
18777;DHT22;9517;51.174;4.160;2023-12-20T19:23:52;9.20;99.90
18777;DHT22;9517;51.174;4.160;2023-12-20T19:26:23;9.20;99.90
18777;DHT22;9517;51.174;4.160;2023-12-20T19:28:59;9.20;99.90
18777;DHT22;9517;51.174;4.160;2023-12-20T19:31:35;9.20;99.90
18777;DHT22;9517;51.174;4.160;2023-12-20T19:34:07;9.20;99.90
18777;DHT22;9517;51.174;4.160;2023-12-20T19:36:43;9.20;99.90
18777;DHT22;9517;51.174;4.160;2023-12-20T19:39:14;9.20;99.90
18777;DHT22;9517;51.174;4.160;2023-12-20T19:41:45;9.10;99.90
18777;DHT22;9517;51.174;4.160;2023-12-20T19:44:20;9.10;99.90
18777;DHT22;9517;51.174;4.160;2023-12-20T19:46:53;9.10;99.90
18777;DHT22;9517;51.174;4.160;2023-12-20T19:49:29;9.10;99.90
18777;DHT22;9517;51.174;4.160;2023-12-20T19:52:00;9.10;99.90
18777;DHT22;9517;51.174;4.160;2023-12-20T19:54:33;9.10;99.90
18777;DHT22;9517;51.174;4.160;2023-12-20T19:57:07;9.10;99.90
18777;DHT22;9517;51.174;4.160;2023-12-20T19:59:35;9.20;99.90
18777;DHT22;9517;51.174;4.160;2023-12-20T20:02:05;9.20;99.90
18777;DHT22;9517;51.174;4.160;2023-12-20T20:04:33;9.20;99.90
18777;DHT22;9517;51.174;4.160;2023-12-20T20:07:01;9.20;99.90